createdAt,value
2018-02-24T00:01:28.581Z,61.24
2018-02-24T00:03:56.274Z,61.14
2018-02-24T00:06:23.918Z,60.88
2018-02-24T00:08:51.917Z,61.08
2018-02-24T00:11:20.057Z,60.94
2018-02-24T00:13:48.048Z,61.12
2018-02-24T00:16:16.113Z,60.91
2018-02-24T00:18:44.150Z,61.31
2018-02-24T00:21:11.806Z,60.97
2018-02-24T00:23:39.469Z,60.89
2018-02-24T00:26:07.124Z,60.52
2018-02-24T00:28:34.814Z,60.86
2018-02-24T00:31:02.406Z,60.63
2018-02-24T00:33:30.016Z,61.15
2018-02-24T00:35:57.653Z,60.64
2018-02-24T00:38:25.324Z,60.21
2018-02-24T00:40:53.020Z,60.03
2018-02-24T00:43:20.632Z,60.88
2018-02-24T00:45:48.313Z,61.25
2018-02-24T00:48:16.037Z,61.10
2018-02-24T00:50:43.897Z,60.78
2018-02-24T00:53:11.544Z,60.52
2018-02-24T00:55:39.285Z,60.69
2018-02-24T00:58:06.946Z,60.90
2018-02-24T01:00:34.809Z,60.77
2018-02-24T01:03:02.414Z,60.16
2018-02-24T01:05:30.861Z,60.20
2018-02-24T01:07:58.466Z,59.96
2018-02-24T01:10:26.132Z,60.66
2018-02-24T01:12:53.812Z,60.62
2018-02-24T01:15:21.447Z,60.53
2018-02-24T01:17:49.029Z,60.54
2018-02-24T01:20:16.683Z,60.50
2018-02-24T01:22:44.437Z,60.55
2018-02-24T01:25:12.078Z,60.51
2018-02-24T01:27:39.736Z,60.67
2018-02-24T01:30:07.329Z,60.69
2018-02-24T01:32:35.004Z,60.40
2018-02-24T01:35:02.709Z,60.82
2018-02-24T01:37:30.392Z,60.74
2018-02-24T01:39:58.056Z,60.37
2018-02-24T01:42:25.667Z,60.09
2018-02-24T01:44:53.341Z,60.51
2018-02-24T01:47:20.960Z,60.08
2018-02-24T01:49:48.572Z,60.26
2018-02-24T01:52:16.269Z,59.65
2018-02-24T01:54:44.008Z,59.92
2018-02-24T01:57:11.634Z,59.63
2018-02-24T01:59:39.293Z,59.75
2018-02-24T02:02:06.920Z,59.62
2018-02-24T02:04:34.514Z,59.32
2018-02-24T02:07:02.418Z,60.03
2018-02-24T02:09:30.066Z,59.96
2018-02-24T02:11:57.689Z,59.82
2018-02-24T02:14:25.475Z,60.42
2018-02-24T02:16:53.086Z,60.04
2018-02-24T02:19:20.737Z,59.49
2018-02-24T02:21:48.395Z,60.20
2018-02-24T02:24:15.972Z,60.15
2018-02-24T02:26:43.581Z,60.48
2018-02-24T02:29:11.231Z,60.65
2018-02-24T02:31:38.845Z,61.10
2018-02-24T02:34:06.435Z,60.86
2018-02-24T02:36:34.130Z,60.99
2018-02-24T02:39:01.728Z,61.21
2018-02-24T02:41:29.448Z,61.04
2018-02-24T02:43:57.489Z,61.35
2018-02-24T02:46:25.180Z,61.06
2018-02-24T02:48:53.117Z,61.50
2018-02-24T02:51:20.715Z,61.24
2018-02-24T02:53:48.488Z,61.52
2018-02-24T02:56:16.201Z,61.64
2018-02-24T02:58:43.845Z,61.49
2018-02-24T03:01:11.448Z,61.69
2018-02-24T03:03:39.140Z,62.10
2018-02-24T03:06:06.883Z,61.97
2018-02-24T03:08:34.902Z,61.82
2018-02-24T03:11:02.672Z,61.79
2018-02-24T03:13:30.279Z,61.96
2018-02-24T03:15:57.963Z,62.38
2018-02-24T03:18:26.110Z,62.38
2018-02-24T03:20:53.791Z,61.99
2018-02-24T03:23:21.376Z,61.97
2018-02-24T03:25:49.080Z,61.74
2018-02-24T03:28:16.803Z,61.71
2018-02-24T03:30:44.425Z,62.10
2018-02-24T03:33:12.078Z,62.11
2018-02-24T03:35:39.659Z,62.21
2018-02-24T03:38:07.321Z,62.31
2018-02-24T03:40:35.028Z,62.09
2018-02-24T03:43:02.691Z,62.45
2018-02-24T03:45:30.442Z,62.71
2018-02-24T03:47:58.081Z,62.54
2018-02-24T03:50:25.781Z,62.48
2018-02-24T03:52:53.437Z,62.65
2018-02-24T03:55:21.124Z,62.46
2018-02-24T03:57:49.063Z,62.64
2018-02-24T04:00:17.002Z,62.64
2018-02-24T04:02:44.578Z,63.09
2018-02-24T04:05:12.178Z,63.06
2018-02-24T04:07:39.844Z,63.38
2018-02-24T04:10:07.672Z,63.24
2018-02-24T04:12:35.253Z,63.42
2018-02-24T04:15:02.911Z,63.43
2018-02-24T04:17:30.771Z,63.58
2018-02-24T04:19:58.370Z,63.87
2018-02-24T04:22:25.992Z,63.74
2018-02-24T04:24:53.606Z,63.48
2018-02-24T04:27:21.490Z,63.97
2018-02-24T04:29:49.072Z,63.61
2018-02-24T04:32:16.706Z,63.83
2018-02-24T04:34:44.344Z,63.92
2018-02-24T04:37:11.928Z,64.30
2018-02-24T04:39:39.526Z,64.52
2018-02-24T04:42:07.111Z,64.41
2018-02-24T04:44:34.711Z,64.53
2018-02-24T04:47:02.353Z,64.50
2018-02-24T04:49:29.950Z,64.49
2018-02-24T04:51:57.845Z,64.43
2018-02-24T04:54:25.697Z,64.60
2018-02-24T04:56:53.323Z,64.52
2018-02-24T04:59:20.918Z,64.19
2018-02-24T05:01:48.559Z,64.55
2018-02-24T05:04:16.180Z,64.68
2018-02-24T05:06:43.791Z,64.62
2018-02-24T05:09:11.413Z,64.37
2018-02-24T05:11:38.974Z,64.60
2018-02-24T05:14:06.610Z,64.56
2018-02-24T05:16:34.210Z,64.72
2018-02-24T05:19:02.138Z,64.47
2018-02-24T05:21:29.745Z,64.80
2018-02-24T05:23:57.382Z,64.73
2018-02-24T05:26:25.008Z,64.69
2018-02-24T05:28:52.800Z,64.42
2018-02-24T05:31:20.383Z,64.75
2018-02-24T05:33:48.023Z,64.58
2018-02-24T05:36:15.872Z,64.30
2018-02-24T05:38:43.534Z,64.62
2018-02-24T05:41:11.163Z,64.55
2018-02-24T05:43:38.777Z,64.52
2018-02-24T05:46:06.368Z,64.66
2018-02-24T05:48:34.104Z,64.68
2018-02-24T05:51:02.045Z,64.56
2018-02-24T05:53:29.650Z,64.70
2018-02-24T05:55:57.540Z,64.63
2018-02-24T05:58:25.149Z,64.70
2018-02-24T06:00:52.741Z,64.70
2018-02-24T06:03:20.380Z,64.84
2018-02-24T06:05:47.940Z,64.81
2018-02-24T06:08:15.565Z,64.97
2018-02-24T06:10:43.302Z,64.96
2018-02-24T06:13:10.926Z,65.41
2018-02-24T06:15:38.503Z,65.39
2018-02-24T06:18:06.125Z,65.41
2018-02-24T06:20:33.723Z,65.17
2018-02-24T06:23:01.659Z,65.20
2018-02-24T06:25:29.316Z,65.50
2018-02-24T06:27:56.944Z,65.64
2018-02-24T06:30:24.843Z,65.64
2018-02-24T06:32:52.487Z,65.72
2018-02-24T06:35:20.052Z,65.62
2018-02-24T06:37:47.668Z,65.81
2018-02-24T06:40:15.311Z,65.73
2018-02-24T06:42:43.165Z,65.96
2018-02-24T06:45:10.847Z,65.91
2018-02-24T06:47:38.552Z,65.89
2018-02-24T06:50:06.137Z,66.12
2018-02-24T06:52:34.001Z,66.01
2018-02-24T06:55:01.641Z,66.16
2018-02-24T06:57:29.344Z,66.10
2018-02-24T06:59:56.995Z,65.90
2018-02-24T07:02:24.850Z,65.72
2018-02-24T07:04:52.588Z,65.82
2018-02-24T07:07:20.256Z,65.59
2018-02-24T07:09:47.848Z,65.64
2018-02-24T07:12:15.444Z,65.55
2018-02-24T07:14:45.164Z,65.47
2018-02-24T07:17:12.998Z,65.62
2018-02-24T07:19:40.612Z,65.82
2018-02-24T07:22:08.246Z,65.81
2018-02-24T07:24:36.186Z,65.23
2018-02-24T07:27:04.054Z,65.21
2018-02-24T07:29:31.733Z,65.51
2018-02-24T07:31:59.360Z,64.99
2018-02-24T07:34:26.963Z,64.83
2018-02-24T07:36:54.580Z,64.22
2018-02-24T07:39:22.419Z,64.19
2018-02-24T07:41:50.003Z,64.17
2018-02-24T07:44:17.611Z,63.23
2018-02-24T07:46:45.247Z,63.40
2018-02-24T07:49:12.931Z,63.12
2018-02-24T07:51:40.562Z,63.84
2018-02-24T07:54:08.210Z,62.81
2018-02-24T07:56:35.837Z,62.93
2018-02-24T07:59:03.515Z,62.80
2018-02-24T08:01:31.120Z,62.82
2018-02-24T08:03:58.707Z,62.69
2018-02-24T08:06:26.335Z,62.62
2018-02-24T08:08:53.942Z,62.85
2018-02-24T08:11:21.591Z,62.66
2018-02-24T08:13:49.215Z,63.08
2018-02-24T08:16:17.156Z,63.00
2018-02-24T08:18:45.076Z,63.75
2018-02-24T08:21:12.710Z,63.65
2018-02-24T08:23:40.327Z,64.35
2018-02-24T08:26:08.024Z,64.35
2018-02-24T08:28:35.606Z,64.69
2018-02-24T08:31:03.246Z,64.67
2018-02-24T08:33:30.852Z,64.73
2018-02-24T08:35:58.679Z,64.86
2018-02-24T08:38:26.287Z,65.49
2018-02-24T08:40:53.951Z,65.71
2018-02-24T08:43:21.803Z,66.01
2018-02-24T08:45:49.654Z,66.22
2018-02-24T08:48:17.421Z,66.85
2018-02-24T08:50:45.010Z,66.33
2018-02-24T08:53:12.581Z,66.47
2018-02-24T08:55:40.231Z,66.87
2018-02-24T08:58:08.036Z,67.36
2018-02-24T09:00:35.683Z,67.43
2018-02-24T09:03:03.323Z,67.70
2018-02-24T09:05:31.187Z,67.90
2018-02-24T09:07:59.134Z,68.01
2018-02-24T09:10:26.749Z,68.16
2018-02-24T09:12:54.589Z,68.44
2018-02-24T09:15:22.238Z,68.35
2018-02-24T09:17:49.811Z,68.32
2018-02-24T09:20:17.462Z,68.22
2018-02-24T09:22:45.088Z,68.52
2018-02-24T09:25:12.676Z,68.36
2018-02-24T09:27:40.398Z,68.15
2018-02-24T09:30:08.324Z,68.16
2018-02-24T09:32:35.941Z,67.66
2018-02-24T09:35:03.675Z,67.83
2018-02-24T09:37:31.406Z,68.05
2018-02-24T09:39:59.055Z,66.95
2018-02-24T09:42:26.914Z,66.71
2018-02-24T09:44:54.782Z,66.89
2018-02-24T09:47:22.465Z,66.74
2018-02-24T09:49:50.098Z,66.87
2018-02-24T09:52:17.734Z,66.81
2018-02-24T09:54:45.638Z,65.97
2018-02-24T09:57:13.266Z,66.24
2018-02-24T09:59:40.861Z,66.44
2018-02-24T10:02:08.504Z,66.42
2018-02-24T10:04:36.111Z,66.14
2018-02-24T10:07:03.709Z,65.58
2018-02-24T10:09:57.258Z,65.52
2018-02-24T10:12:24.864Z,65.63
2018-02-24T10:14:52.479Z,65.47
2018-02-24T10:17:20.132Z,65.43
2018-02-24T10:19:47.714Z,65.04
2018-02-24T10:22:15.312Z,65.39
2018-02-24T10:24:42.978Z,65.11
2018-02-24T10:27:10.563Z,64.96
2018-02-24T10:29:38.212Z,64.94
2018-02-24T10:32:05.814Z,65.22
2018-02-24T10:34:33.403Z,65.16
2018-02-24T10:37:01.024Z,65.29
2018-02-24T10:39:28.756Z,65.13
2018-02-24T10:41:56.410Z,65.39
2018-02-24T10:44:24.088Z,65.11
2018-02-24T10:46:51.679Z,65.12
2018-02-24T10:49:19.316Z,64.98
2018-02-24T10:51:46.952Z,65.16
2018-02-24T10:54:14.606Z,65.35
2018-02-24T10:56:42.285Z,65.15
2018-02-24T10:59:09.876Z,64.51
2018-02-24T11:01:37.496Z,64.66
2018-02-24T11:04:11.674Z,64.10
2018-02-24T11:06:39.598Z,64.03
2018-02-24T11:09:07.659Z,63.10
2018-02-24T11:11:35.305Z,62.08
2018-02-24T11:14:02.941Z,62.32
2018-02-24T11:16:30.644Z,62.40
2018-02-24T11:18:58.246Z,61.67
2018-02-24T11:21:25.862Z,61.29
2018-02-24T11:23:53.563Z,60.81
2018-02-24T11:26:21.188Z,60.27
2018-02-24T11:28:49.069Z,60.43
2018-02-24T11:31:17.054Z,60.67
2018-02-24T11:33:44.706Z,60.46
2018-02-24T11:36:12.605Z,59.91
2018-02-24T11:38:40.306Z,60.24
2018-02-24T11:41:08.308Z,59.42
2018-02-24T11:43:36.083Z,57.80
2018-02-24T11:46:03.753Z,57.11
2018-02-24T11:48:31.382Z,57.97
2018-02-24T11:50:59.134Z,57.54
2018-02-24T11:53:27.016Z,57.88
2018-02-24T11:55:54.883Z,57.19
2018-02-24T11:58:22.564Z,56.89
2018-02-24T12:00:50.201Z,56.41
2018-02-24T12:03:17.760Z,55.89
2018-02-24T12:05:45.632Z,56.41
2018-02-24T12:08:13.303Z,56.03
2018-02-24T12:10:40.979Z,56.18
2018-02-24T12:13:08.555Z,54.82
2018-02-24T12:15:36.212Z,55.91
2018-02-24T12:18:03.827Z,55.41
2018-02-24T12:20:31.437Z,55.41
2018-02-24T12:22:59.092Z,54.52
2018-02-24T12:25:37.732Z,53.98
2018-02-24T12:28:05.371Z,54.33
2018-02-24T12:30:32.997Z,54.99
2018-02-24T12:33:00.609Z,54.90
2018-02-24T12:35:28.388Z,53.16
2018-02-24T12:37:56.331Z,52.79
2018-02-24T12:40:24.015Z,52.85
2018-02-24T12:42:51.954Z,53.12
2018-02-24T12:45:19.595Z,53.24
2018-02-24T12:47:47.220Z,53.88
2018-02-24T12:50:14.892Z,54.29
2018-02-24T12:52:42.515Z,54.80
2018-02-24T12:55:10.137Z,55.49
2018-02-24T12:57:37.769Z,55.84
2018-02-24T13:00:05.432Z,55.94
2018-02-24T13:02:33.365Z,56.39
2018-02-24T13:05:06.586Z,56.31
2018-02-24T13:07:34.297Z,56.31
2018-02-24T13:10:02.008Z,56.47
2018-02-24T13:12:29.635Z,56.91
2018-02-24T13:14:57.251Z,56.23
2018-02-24T13:17:24.914Z,56.68
2018-02-24T13:19:52.648Z,56.66
2018-02-24T13:22:20.283Z,56.24
2018-02-24T13:24:47.953Z,55.99
2018-02-24T13:27:15.612Z,55.80
2018-02-24T13:29:43.264Z,55.06
2018-02-24T13:32:11.248Z,55.26
2018-02-24T13:34:38.899Z,55.96
2018-02-24T13:37:06.604Z,55.63
2018-02-24T13:39:34.242Z,55.88
2018-02-24T13:42:01.894Z,56.67
2018-02-24T13:44:29.560Z,56.34
2018-02-24T13:46:57.624Z,56.07
2018-02-24T13:49:25.266Z,55.59
2018-02-24T13:51:52.956Z,55.55
2018-02-24T13:54:20.612Z,55.94
2018-02-24T13:56:48.232Z,55.40
2018-02-24T13:59:16.222Z,55.31
2018-02-24T14:01:43.843Z,55.28
2018-02-24T14:04:11.478Z,55.10
2018-02-24T14:06:39.170Z,55.28
2018-02-24T14:09:06.787Z,55.74
2018-02-24T14:11:34.411Z,55.83
2018-02-24T14:14:02.104Z,55.59
2018-02-24T14:16:30.081Z,55.98
2018-02-24T14:18:58.054Z,55.87
2018-02-24T14:21:25.783Z,55.58
2018-02-24T14:23:53.681Z,55.62
2018-02-24T14:26:21.289Z,55.61
2018-02-24T14:28:48.974Z,54.74
2018-02-24T14:31:16.649Z,53.67
2018-02-24T14:33:44.293Z,52.45
2018-02-24T14:36:11.953Z,50.55
2018-02-24T14:38:39.543Z,50.79
2018-02-24T14:41:07.170Z,51.51
2018-02-24T14:43:34.845Z,50.06
2018-02-24T14:46:02.510Z,49.70
2018-02-24T14:48:30.100Z,49.30
2018-02-24T14:50:57.771Z,49.40
2018-02-24T14:53:25.439Z,48.70
2018-02-24T14:55:53.382Z,49.30
2018-02-24T14:58:21.010Z,48.87
2018-02-24T15:00:48.675Z,49.14
2018-02-24T15:03:16.322Z,49.66
2018-02-24T15:05:43.949Z,49.52
2018-02-24T15:08:11.653Z,50.16
2018-02-24T15:10:39.333Z,48.17
2018-02-24T15:13:07.069Z,47.64
2018-02-24T15:15:34.941Z,46.88
2018-02-24T15:18:03.077Z,46.67
2018-02-24T15:20:30.803Z,45.70
2018-02-24T15:22:58.411Z,46.20
2018-02-24T15:25:26.079Z,47.13
2018-02-24T15:27:53.820Z,47.19
2018-02-24T15:30:21.450Z,47.66
2018-02-24T15:32:49.570Z,47.64
2018-02-24T15:35:17.319Z,48.06
2018-02-24T15:37:45.061Z,48.26
2018-02-24T15:40:12.725Z,48.63
2018-02-24T15:42:40.390Z,48.44
2018-02-24T15:45:08.049Z,47.51
2018-02-24T15:47:35.676Z,47.76
2018-02-24T15:50:03.343Z,47.37
2018-02-24T15:52:31.072Z,47.65
2018-02-24T15:54:58.718Z,48.07
2018-02-24T15:57:26.796Z,47.96
2018-02-24T15:59:54.514Z,48.00
2018-02-24T16:02:22.183Z,47.96
2018-02-24T16:04:49.990Z,48.51
2018-02-24T16:07:17.621Z,47.88
2018-02-24T16:09:45.373Z,48.59
2018-02-24T16:12:13.130Z,48.54
2018-02-24T16:14:40.774Z,48.80
2018-02-24T16:17:08.420Z,49.31
2018-02-24T16:19:36.092Z,49.01
2018-02-24T16:22:04.001Z,49.20
2018-02-24T16:24:31.688Z,48.56
2018-02-24T16:26:59.335Z,48.27
2018-02-24T16:29:27.234Z,48.27
2018-02-24T16:31:54.927Z,48.03
2018-02-24T16:34:22.553Z,47.76
2018-02-24T16:36:50.167Z,47.66
2018-02-24T16:39:18.187Z,47.42
2018-02-24T16:41:45.865Z,47.70
2018-02-24T16:44:13.506Z,47.25
2018-02-24T16:46:41.194Z,47.81
2018-02-24T16:49:08.870Z,47.37
2018-02-24T16:51:36.523Z,48.24
2018-02-24T16:54:04.227Z,48.52
2018-02-24T16:56:31.883Z,48.40
2018-02-24T16:58:59.519Z,48.82
2018-02-24T17:01:27.223Z,48.62
2018-02-24T17:03:54.880Z,48.40
2018-02-24T17:06:22.506Z,48.19
2018-02-24T17:08:50.199Z,48.26
2018-02-24T17:11:17.830Z,48.09
2018-02-24T17:13:45.514Z,48.42
2018-02-24T17:16:13.384Z,48.95
2018-02-24T17:18:41.113Z,49.34
2018-02-24T17:21:08.739Z,49.33
2018-02-24T17:23:36.435Z,50.41
2018-02-24T17:26:04.495Z,50.09
2018-02-24T17:28:32.108Z,50.34
2018-02-24T17:30:59.790Z,50.26
2018-02-24T17:33:27.463Z,50.38
2018-02-24T17:35:55.083Z,50.25
2018-02-24T17:38:22.808Z,50.72
2018-02-24T17:40:50.462Z,50.68
2018-02-24T17:43:18.092Z,50.76
2018-02-24T17:45:45.781Z,51.00
2018-02-24T17:48:13.859Z,51.10
2018-02-24T17:50:41.495Z,51.56
2018-02-24T17:53:09.252Z,51.47
2018-02-24T17:55:36.930Z,51.58
2018-02-24T17:58:04.578Z,52.05
2018-02-24T18:00:32.197Z,52.66
2018-02-24T18:02:59.889Z,52.45
2018-02-24T18:05:27.487Z,52.60
2018-02-24T18:07:55.102Z,52.82
2018-02-24T18:10:22.721Z,52.62
2018-02-24T18:12:50.387Z,52.54
2018-02-24T18:15:38.314Z,52.67
2018-02-24T18:18:06.383Z,52.22
2018-02-24T18:20:34.609Z,52.50
2018-02-24T18:23:02.765Z,52.84
2018-02-24T18:25:30.874Z,52.58
2018-02-24T18:27:58.503Z,52.60
2018-02-24T18:30:26.237Z,52.86
2018-02-24T18:32:53.888Z,52.83
2018-02-24T18:35:21.559Z,53.15
2018-02-24T18:37:49.266Z,52.86
2018-02-24T18:40:16.975Z,53.10
2018-02-24T18:42:44.598Z,53.38
2018-02-24T18:45:12.280Z,53.89
2018-02-24T18:47:39.874Z,53.93
2018-02-24T18:50:07.530Z,54.18
2018-02-24T18:52:35.169Z,54.00
2018-02-24T18:55:02.856Z,53.78
2018-02-24T18:57:30.507Z,53.92
2018-02-24T18:59:58.118Z,54.10
2018-02-24T19:02:29.609Z,54.38
2018-02-24T19:04:57.284Z,54.84
2018-02-24T19:07:25.112Z,55.20
2018-02-24T19:09:52.753Z,55.53
2018-02-24T19:12:20.586Z,55.26
2018-02-24T19:14:48.514Z,55.54
2018-02-24T19:17:16.187Z,55.13
2018-02-24T19:19:43.809Z,54.90
2018-02-24T19:22:11.439Z,55.07
2018-02-24T19:24:39.099Z,54.42
2018-02-24T19:27:06.900Z,54.52
2018-02-24T19:29:35.808Z,54.39
2018-02-24T19:32:03.451Z,54.38
2018-02-24T19:34:31.044Z,54.51
2018-02-24T19:36:58.950Z,54.59
2018-02-24T19:39:26.548Z,54.54
2018-02-24T19:41:54.172Z,54.73
2018-02-24T19:44:21.834Z,54.96
2018-02-24T19:46:49.664Z,54.45
2018-02-24T19:49:17.240Z,54.92
2018-02-24T19:51:44.930Z,55.28
2018-02-24T19:54:12.549Z,54.34
2018-02-24T19:56:40.176Z,55.03
2018-02-24T19:59:07.827Z,55.31
2018-02-24T20:01:35.469Z,55.31
2018-02-24T20:04:03.046Z,54.91
2018-02-24T20:06:30.678Z,55.34
2018-02-24T20:08:58.267Z,55.73
2018-02-24T20:11:25.972Z,55.75
2018-02-24T20:13:53.549Z,56.11
2018-02-24T20:16:21.166Z,56.29
2018-02-24T20:18:48.797Z,56.26
2018-02-24T20:21:16.418Z,56.68
2018-02-24T20:23:43.989Z,56.38
2018-02-24T20:26:11.592Z,56.76
2018-02-24T20:28:39.273Z,56.43
2018-02-24T20:31:07.105Z,55.87
2018-02-24T20:33:36.562Z,56.70
2018-02-24T20:36:04.213Z,55.87
2018-02-24T20:38:31.855Z,55.54
2018-02-24T20:40:59.517Z,55.83
2018-02-24T20:43:27.157Z,55.61
2018-02-24T20:45:54.801Z,55.40
2018-02-24T20:48:22.456Z,54.97
2018-02-24T20:50:50.055Z,55.68
2018-02-24T20:53:17.927Z,55.92
2018-02-24T20:55:45.598Z,55.48
2018-02-24T20:58:13.216Z,55.41
2018-02-24T21:00:41.986Z,55.15
2018-02-24T21:03:09.995Z,55.39
2018-02-24T21:05:37.581Z,54.79
2018-02-24T21:08:05.238Z,54.67
2018-02-24T21:10:32.897Z,54.97
2018-02-24T21:13:01.577Z,54.71
2018-02-24T21:15:36.169Z,54.83
2018-02-24T21:18:03.767Z,54.82
2018-02-24T21:20:31.363Z,55.17
2018-02-24T21:22:58.987Z,55.44
2018-02-24T21:25:26.960Z,55.53
2018-02-24T21:27:55.115Z,55.58
2018-02-24T21:30:22.720Z,55.32
2018-02-24T21:32:50.358Z,55.30
2018-02-24T21:35:18.016Z,55.75
2018-02-24T21:37:45.628Z,55.34
2018-02-24T21:40:13.238Z,55.42
2018-02-24T21:42:40.918Z,55.78
2018-02-24T21:45:08.589Z,55.55
2018-02-24T21:47:36.219Z,55.68
2018-02-24T21:50:03.851Z,55.87
2018-02-24T21:52:31.494Z,55.91
2018-02-24T21:54:59.103Z,56.32
2018-02-24T21:57:26.797Z,56.21
2018-02-24T21:59:54.394Z,56.49
2018-02-24T22:02:22.093Z,56.55
2018-02-24T22:04:49.760Z,56.33
2018-02-24T22:07:17.377Z,56.97
2018-02-24T22:09:45.260Z,56.61
2018-02-24T22:12:12.859Z,56.45
2018-02-24T22:14:40.427Z,56.60
2018-02-24T22:17:08.031Z,56.99
2018-02-24T22:19:35.667Z,56.99
2018-02-24T22:22:03.263Z,56.96
2018-02-24T22:24:30.881Z,57.01
2018-02-24T22:26:58.514Z,56.94
2018-02-24T22:29:26.108Z,57.15
2018-02-24T22:31:53.716Z,57.37
2018-02-24T22:34:21.343Z,57.19
2018-02-24T22:36:48.934Z,57.20
2018-02-24T22:39:16.554Z,57.32
2018-02-24T22:41:44.209Z,57.38
2018-02-24T22:44:11.804Z,57.77
2018-02-24T22:46:39.428Z,57.41
2018-02-24T22:49:07.039Z,57.96
2018-02-24T22:51:34.611Z,57.71
2018-02-24T22:54:02.227Z,57.90
2018-02-24T22:56:29.930Z,57.83
2018-02-24T22:58:57.625Z,58.25
2018-02-24T23:01:25.578Z,58.13
2018-02-24T23:03:53.155Z,58.14
2018-02-24T23:06:20.795Z,58.13
2018-02-24T23:08:48.386Z,58.01
2018-02-24T23:11:15.994Z,58.16
2018-02-24T23:13:43.656Z,58.15
2018-02-24T23:16:11.263Z,58.29
2018-02-24T23:18:38.861Z,58.32
2018-02-24T23:21:06.478Z,58.07
2018-02-24T23:23:34.158Z,58.07
2018-02-24T23:26:01.724Z,58.24
2018-02-24T23:28:29.295Z,58.54
2018-02-24T23:30:56.989Z,58.56
2018-02-24T23:33:24.586Z,58.81
2018-02-24T23:35:52.233Z,58.31
2018-02-24T23:38:19.831Z,58.62
2018-02-24T23:40:47.454Z,58.71
2018-02-24T23:43:15.101Z,58.93
2018-02-24T23:45:42.792Z,58.91
2018-02-24T23:48:10.386Z,59.06
2018-02-24T23:50:38.020Z,58.61
2018-02-24T23:53:05.664Z,58.49
2018-02-24T23:55:33.628Z,58.43
2018-02-24T23:58:01.504Z,58.70
